createdAt,value
2018-12-08T00:00:26.481Z,7.31
2018-12-08T00:02:55.596Z,7.30
2018-12-08T00:05:24.681Z,7.21
2018-12-08T00:07:53.984Z,7.32
2018-12-08T00:10:23.529Z,7.35
2018-12-08T00:12:52.723Z,7.31
2018-12-08T00:15:21.943Z,7.30
2018-12-08T00:17:51.114Z,7.11
2018-12-08T00:20:20.298Z,7.14
2018-12-08T00:22:49.589Z,7.18
2018-12-08T00:25:18.906Z,7.16
2018-12-08T00:27:48.005Z,6.99
2018-12-08T00:30:28.995Z,7.01
2018-12-08T00:32:58.100Z,7.04
2018-12-08T00:35:30.523Z,6.97
2018-12-08T00:37:59.618Z,6.92
2018-12-08T00:40:28.822Z,6.96
2018-12-08T00:42:57.955Z,6.92
2018-12-08T00:45:27.091Z,6.90
2018-12-08T00:47:56.317Z,6.89
2018-12-08T00:50:25.629Z,6.78
2018-12-08T00:52:54.811Z,6.68
2018-12-08T00:55:23.946Z,6.69
2018-12-08T00:57:53.887Z,6.55
2018-12-08T01:00:23.666Z,6.48
2018-12-08T01:02:52.774Z,6.40
2018-12-08T01:05:22.065Z,6.43
2018-12-08T01:07:51.263Z,6.43
2018-12-08T01:10:20.446Z,6.45
2018-12-08T01:12:50.374Z,6.41
2018-12-08T01:15:19.554Z,6.44
2018-12-08T01:17:48.686Z,6.47
2018-12-08T01:20:17.801Z,6.57
2018-12-08T01:22:47.402Z,6.59
2018-12-08T01:25:16.976Z,6.62
2018-12-08T01:27:46.288Z,6.65
2018-12-08T01:30:15.434Z,6.64
2018-12-08T01:32:44.651Z,6.56
2018-12-08T01:35:13.874Z,6.46
2018-12-08T01:37:43.185Z,6.44
2018-12-08T01:40:12.301Z,6.50
2018-12-08T01:42:41.633Z,6.55
2018-12-08T01:45:10.743Z,6.42
2018-12-08T01:47:39.877Z,6.45
2018-12-08T01:50:09.021Z,6.47
2018-12-08T01:52:38.164Z,6.42
2018-12-08T01:55:07.566Z,6.35
2018-12-08T01:57:36.758Z,6.29
2018-12-08T02:00:06.879Z,6.21
2018-12-08T02:02:36.330Z,6.15
2018-12-08T02:05:05.764Z,6.10
2018-12-08T02:07:34.865Z,6.05
2018-12-08T02:10:04.816Z,6.03
2018-12-08T02:12:33.944Z,5.97
2018-12-08T02:15:03.097Z,5.93
2018-12-08T02:17:32.204Z,6.03
2018-12-08T02:20:01.325Z,6.22
2018-12-08T02:22:30.430Z,6.27
2018-12-08T02:25:00.290Z,6.28
2018-12-08T02:27:29.390Z,6.23
2018-12-08T02:29:58.514Z,6.19
2018-12-08T02:32:27.662Z,6.23
2018-12-08T02:34:56.861Z,6.09
2018-12-08T02:37:26.523Z,6.07
2018-12-08T02:39:55.817Z,6.00
2018-12-08T02:42:25.498Z,5.88
2018-12-08T02:44:55.185Z,5.85
2018-12-08T02:47:24.429Z,5.80
2018-12-08T02:49:53.683Z,5.70
2018-12-08T02:52:22.803Z,5.62
2018-12-08T02:54:51.996Z,5.67
2018-12-08T02:57:21.140Z,5.76
2018-12-08T02:59:50.240Z,5.76
2018-12-08T03:02:19.509Z,5.80
2018-12-08T03:04:48.650Z,5.74
2018-12-08T03:07:17.961Z,5.64
2018-12-08T03:09:47.284Z,5.77
2018-12-08T03:12:16.434Z,5.78
2018-12-08T03:14:45.535Z,5.75
2018-12-08T03:17:14.692Z,5.70
2018-12-08T03:19:43.891Z,5.73
2018-12-08T03:22:13.011Z,5.68
2018-12-08T03:24:42.280Z,5.65
2018-12-08T03:27:11.402Z,5.63
2018-12-08T03:29:40.506Z,5.61
2018-12-08T03:32:09.625Z,5.69
2018-12-08T03:34:38.772Z,5.66
2018-12-08T03:37:07.871Z,5.62
2018-12-08T03:39:37.001Z,5.54
2018-12-08T03:42:06.480Z,5.54
2018-12-08T03:44:35.699Z,5.56
2018-12-08T03:47:04.875Z,5.61
2018-12-08T03:49:33.997Z,5.68
2018-12-08T03:52:03.202Z,5.83
2018-12-08T03:54:32.315Z,5.93
2018-12-08T03:57:01.456Z,5.86
2018-12-08T03:59:30.626Z,5.78
2018-12-08T04:01:59.751Z,5.80
2018-12-08T04:04:29.017Z,5.68
2018-12-08T04:06:58.220Z,5.78
2018-12-08T04:09:27.350Z,5.70
2018-12-08T04:11:56.483Z,5.77
2018-12-08T04:14:25.617Z,5.74
2018-12-08T04:16:54.783Z,5.63
2018-12-08T04:19:24.004Z,5.68
2018-12-08T04:21:53.170Z,5.65
2018-12-08T04:24:22.308Z,5.61
2018-12-08T04:26:51.406Z,5.58
2018-12-08T04:29:20.544Z,5.48
2018-12-08T04:31:49.638Z,5.66
2018-12-08T04:34:18.785Z,5.72
2018-12-08T04:36:48.083Z,5.81
2018-12-08T04:39:17.186Z,5.79
2018-12-08T04:41:46.349Z,5.89
2018-12-08T04:44:15.445Z,5.87
2018-12-08T04:46:44.659Z,5.75
2018-12-08T04:49:13.851Z,5.71
2018-12-08T04:51:43.019Z,5.75
2018-12-08T04:54:12.236Z,5.64
2018-12-08T04:56:41.482Z,5.64
2018-12-08T04:59:10.767Z,5.73
2018-12-08T05:01:39.940Z,5.82
2018-12-08T05:04:09.115Z,5.94
2018-12-08T05:06:38.229Z,6.01
2018-12-08T05:09:07.620Z,5.93
2018-12-08T05:11:36.851Z,5.83
2018-12-08T05:14:05.988Z,5.82
2018-12-08T05:16:35.127Z,5.74
2018-12-08T05:19:04.405Z,5.67
2018-12-08T05:21:33.643Z,5.70
2018-12-08T05:24:02.756Z,5.65
2018-12-08T05:26:31.885Z,5.51
2018-12-08T05:29:01.277Z,5.46
2018-12-08T05:31:30.441Z,5.50
2018-12-08T05:33:59.542Z,5.51
2018-12-08T05:36:28.693Z,5.37
2018-12-08T05:38:58.641Z,5.28
2018-12-08T05:41:27.872Z,5.24
2018-12-08T05:43:57.160Z,5.22
2018-12-08T05:46:26.282Z,5.14
2018-12-08T05:48:55.460Z,5.11
2018-12-08T05:51:24.629Z,5.10
2018-12-08T05:53:53.770Z,4.99
2018-12-08T05:56:22.878Z,4.97
2018-12-08T05:58:52.016Z,4.92
2018-12-08T06:01:21.100Z,4.89
2018-12-08T06:03:50.216Z,4.83
2018-12-08T06:06:19.569Z,4.80
2018-12-08T06:08:48.783Z,4.80
2018-12-08T06:11:17.888Z,4.73
2018-12-08T06:13:47.010Z,4.73
2018-12-08T06:16:16.172Z,4.68
2018-12-08T06:18:45.381Z,4.62
2018-12-08T06:21:14.500Z,4.57
2018-12-08T06:23:43.749Z,4.53
2018-12-08T06:26:13.004Z,4.57
2018-12-08T06:28:42.191Z,4.58
2018-12-08T06:31:11.305Z,4.56
2018-12-08T06:33:40.437Z,4.55
2018-12-08T06:36:09.541Z,4.59
2018-12-08T06:38:40.344Z,4.73
2018-12-08T06:41:09.456Z,4.66
2018-12-08T06:43:38.746Z,4.74
2018-12-08T06:46:07.934Z,4.96
2018-12-08T06:48:37.058Z,5.01
2018-12-08T06:51:06.180Z,5.07
2018-12-08T06:53:35.320Z,5.07
2018-12-08T06:56:04.430Z,5.00
2018-12-08T06:58:33.619Z,4.98
2018-12-08T07:01:02.772Z,4.97
2018-12-08T07:03:32.011Z,5.02
2018-12-08T07:06:01.129Z,5.06
2018-12-08T07:08:30.336Z,5.05
2018-12-08T07:10:59.577Z,5.12
2018-12-08T07:13:28.775Z,5.17
2018-12-08T07:15:57.891Z,5.17
2018-12-08T07:18:27.686Z,5.18
2018-12-08T07:20:56.884Z,5.23
2018-12-08T07:23:26.081Z,5.24
2018-12-08T07:25:55.206Z,5.34
2018-12-08T07:28:24.384Z,5.40
2018-12-08T07:30:53.677Z,5.53
2018-12-08T07:33:22.775Z,5.56
2018-12-08T07:35:52.091Z,5.55
2018-12-08T07:38:21.253Z,5.60
2018-12-08T07:40:50.472Z,5.64
2018-12-08T07:43:19.941Z,5.68
2018-12-08T07:45:49.185Z,5.73
2018-12-08T07:50:53.743Z,5.77
2018-12-08T07:53:23.125Z,5.84
2018-12-08T07:55:52.288Z,5.84
2018-12-08T07:58:21.419Z,5.86
2018-12-08T08:00:50.583Z,5.88
2018-12-08T08:03:19.767Z,5.89
2018-12-08T08:05:48.920Z,5.91
2018-12-08T08:08:18.054Z,5.94
2018-12-08T08:10:47.219Z,5.98
2018-12-08T08:13:16.339Z,6.00
2018-12-08T08:15:45.569Z,6.04
2018-12-08T08:18:14.706Z,6.10
2018-12-08T08:20:43.840Z,6.19
2018-12-08T08:23:12.990Z,6.22
2018-12-08T08:25:42.252Z,6.23
2018-12-08T08:28:11.387Z,6.23
2018-12-08T08:30:40.556Z,6.22
2018-12-08T08:33:09.742Z,6.25
2018-12-08T08:35:38.921Z,6.25
2018-12-08T08:38:08.177Z,6.25
2018-12-08T08:40:37.367Z,6.23
2018-12-08T08:43:06.521Z,6.22
2018-12-08T08:45:35.771Z,6.22
2018-12-08T08:48:04.872Z,6.28
2018-12-08T08:50:34.034Z,6.32
2018-12-08T08:53:04.839Z,6.34
2018-12-08T08:55:34.065Z,6.33
2018-12-08T08:58:03.187Z,6.33
2018-12-08T09:00:32.385Z,6.31
2018-12-08T09:03:01.476Z,6.34
2018-12-08T09:05:30.602Z,6.43
2018-12-08T09:07:59.837Z,6.49
2018-12-08T09:10:29.078Z,6.54
2018-12-08T09:12:58.221Z,6.65
2018-12-08T09:15:27.574Z,6.71
2018-12-08T09:17:56.854Z,6.73
2018-12-08T09:20:26.076Z,6.72
2018-12-08T09:22:55.243Z,6.70
2018-12-08T09:25:24.323Z,6.71
2018-12-08T09:27:53.432Z,6.79
2018-12-08T09:30:22.876Z,6.73
2018-12-08T09:32:52.029Z,6.72
2018-12-08T09:35:21.459Z,6.71
2018-12-08T09:37:50.640Z,6.71
2018-12-08T09:40:19.737Z,6.70
2018-12-08T09:42:48.974Z,6.77
2018-12-08T09:45:18.108Z,6.80
2018-12-08T09:47:47.344Z,6.85
2018-12-08T09:50:16.489Z,6.87
2018-12-08T09:52:49.705Z,6.93
2018-12-08T09:55:19.148Z,6.94
2018-12-08T09:57:48.302Z,6.92
2018-12-08T10:00:17.512Z,6.94
2018-12-08T10:02:46.599Z,6.96
2018-12-08T10:05:15.847Z,6.98
2018-12-08T10:07:45.043Z,7.02
2018-12-08T10:10:14.176Z,6.99
2018-12-08T10:12:43.425Z,6.97
2018-12-08T10:15:12.544Z,6.95
2018-12-08T10:17:41.717Z,6.94
2018-12-08T10:20:11.112Z,6.95
2018-12-08T10:22:40.273Z,6.99
2018-12-08T10:25:09.530Z,7.03
2018-12-08T10:27:39.401Z,7.03
2018-12-08T10:30:10.533Z,7.10
2018-12-08T10:32:40.032Z,7.16
2018-12-08T10:35:11.313Z,7.24
2018-12-08T10:37:40.514Z,7.34
2018-12-08T10:40:10.036Z,7.35
2018-12-08T10:42:39.174Z,7.26
2018-12-08T10:45:08.433Z,7.28
2018-12-08T10:47:37.694Z,7.28
2018-12-08T10:50:07.366Z,7.32
2018-12-08T10:52:36.542Z,7.38
2018-12-08T10:55:05.790Z,7.43
2018-12-08T10:57:34.940Z,7.42
2018-12-08T11:00:05.005Z,7.45
2018-12-08T11:02:37.001Z,7.47
2018-12-08T11:05:06.386Z,7.42
2018-12-08T11:07:35.583Z,7.38
2018-12-08T11:10:05.404Z,7.29
2018-12-08T11:12:34.614Z,7.28
2018-12-08T11:15:04.805Z,7.34
2018-12-08T11:17:33.883Z,7.30
2018-12-08T11:20:03.040Z,7.23
2018-12-08T11:22:32.157Z,7.16
2018-12-08T11:25:01.334Z,7.15
2018-12-08T11:27:30.427Z,7.10
2018-12-08T11:29:59.602Z,7.07
2018-12-08T11:32:28.840Z,6.98
2018-12-08T11:34:57.983Z,6.84
2018-12-08T11:37:27.527Z,6.74
2018-12-08T11:39:56.733Z,6.66
2018-12-08T11:42:25.997Z,6.59
2018-12-08T11:44:55.295Z,6.52
2018-12-08T11:47:24.523Z,6.42
2018-12-08T11:49:53.771Z,6.39
2018-12-08T11:52:22.916Z,6.38
2018-12-08T11:54:52.215Z,6.37
2018-12-08T11:57:21.376Z,6.39
2018-12-08T11:59:50.481Z,6.40
2018-12-08T12:02:19.819Z,6.54
2018-12-08T12:04:49.019Z,6.79
2018-12-08T12:07:18.163Z,7.47
2018-12-08T12:09:47.427Z,8.48
2018-12-08T12:12:16.614Z,8.83
2018-12-08T12:14:46.216Z,8.68
2018-12-08T12:17:15.513Z,8.21
2018-12-08T12:19:44.631Z,8.10
2018-12-08T12:22:13.914Z,7.80
2018-12-08T12:24:43.109Z,8.03
2018-12-08T12:27:12.214Z,7.76
2018-12-08T12:29:41.306Z,7.51
2018-12-08T12:32:10.529Z,7.56
2018-12-08T12:34:39.693Z,7.42
2018-12-08T12:37:08.907Z,7.25
2018-12-08T12:39:37.999Z,7.40
2018-12-08T12:42:07.245Z,7.50
2018-12-08T12:44:36.463Z,8.08
2018-12-08T12:47:06.002Z,7.60
2018-12-08T12:49:35.162Z,7.22
2018-12-08T12:52:04.455Z,7.06
2018-12-08T12:54:33.574Z,6.97
2018-12-08T12:57:02.882Z,6.95
2018-12-08T12:59:31.987Z,6.83
2018-12-08T13:02:01.144Z,6.80
2018-12-08T13:04:30.282Z,6.82
2018-12-08T13:06:59.380Z,6.86
2018-12-08T13:09:28.572Z,6.92
2018-12-08T13:11:58.012Z,7.03
2018-12-08T13:14:27.501Z,7.01
2018-12-08T13:16:56.784Z,6.99
2018-12-08T13:19:25.929Z,6.99
2018-12-08T13:21:55.254Z,6.99
2018-12-08T13:24:28.436Z,6.96
2018-12-08T13:26:57.881Z,6.80
2018-12-08T13:29:27.761Z,6.71
2018-12-08T13:31:57.164Z,6.53
2018-12-08T13:34:26.701Z,6.44
2018-12-08T13:36:56.051Z,6.42
2018-12-08T13:39:25.294Z,6.42
2018-12-08T13:41:54.426Z,6.43
2018-12-08T13:44:36.216Z,6.42
2018-12-08T13:47:05.548Z,6.43
2018-12-08T13:49:35.897Z,6.44
2018-12-08T13:52:05.484Z,6.49
2018-12-08T13:54:48.089Z,6.67
2018-12-08T13:57:17.269Z,6.69
2018-12-08T13:59:50.739Z,6.64
2018-12-08T14:02:20.041Z,6.67
2018-12-08T14:04:49.499Z,6.60
2018-12-08T14:07:18.808Z,6.53
2018-12-08T14:09:47.917Z,6.51
2018-12-08T14:12:17.039Z,6.51
2018-12-08T14:14:46.176Z,6.54
2018-12-08T14:17:15.427Z,6.56
2018-12-08T14:19:44.686Z,6.59
2018-12-08T14:22:13.919Z,6.59
2018-12-08T14:24:43.235Z,6.60
2018-12-08T14:27:12.370Z,6.58
2018-12-08T14:29:41.710Z,6.50
2018-12-08T14:32:10.832Z,6.35
2018-12-08T14:34:40.067Z,6.32
2018-12-08T14:37:09.370Z,6.33
2018-12-08T14:39:38.606Z,6.39
2018-12-08T14:42:07.765Z,6.37
2018-12-08T14:44:37.009Z,6.35
2018-12-08T14:47:06.159Z,6.33
2018-12-08T14:49:36.166Z,6.32
2018-12-08T14:52:05.312Z,6.34
2018-12-08T14:54:34.493Z,6.37
2018-12-08T14:57:03.811Z,6.43
2018-12-08T14:59:32.930Z,6.48
2018-12-08T15:02:02.070Z,6.49
2018-12-08T15:04:31.203Z,6.47
2018-12-08T15:07:00.602Z,6.49
2018-12-08T15:09:29.922Z,6.51
2018-12-08T15:11:59.176Z,6.48
2018-12-08T15:14:28.403Z,6.49
2018-12-08T15:16:57.673Z,6.52
2018-12-08T15:19:26.757Z,6.55
2018-12-08T15:21:55.982Z,6.57
2018-12-08T15:24:25.197Z,6.58
2018-12-08T15:26:54.710Z,6.46
2018-12-08T15:29:23.807Z,6.39
2018-12-08T15:31:53.475Z,6.32
2018-12-08T15:34:22.596Z,6.29
2018-12-08T15:36:51.801Z,6.26
2018-12-08T15:39:20.901Z,6.16
2018-12-08T15:41:50.096Z,6.18
2018-12-08T15:44:19.309Z,6.22
2018-12-08T15:46:48.368Z,6.19
2018-12-08T15:49:17.553Z,6.25
2018-12-08T15:51:46.678Z,6.23
2018-12-08T15:54:15.805Z,6.25
2018-12-08T15:56:45.008Z,6.24
2018-12-08T15:59:14.152Z,6.29
2018-12-08T16:01:43.327Z,6.30
2018-12-08T16:04:12.640Z,6.40
2018-12-08T16:06:41.831Z,6.40
2018-12-08T16:09:11.094Z,6.40
2018-12-08T16:11:40.261Z,6.47
2018-12-08T16:14:09.361Z,6.51
2018-12-08T16:16:38.474Z,6.55
2018-12-08T16:19:07.733Z,6.63
2018-12-08T16:21:36.820Z,6.66
2018-12-08T16:24:05.950Z,6.69
2018-12-08T16:26:35.151Z,6.69
2018-12-08T16:29:04.324Z,6.71
2018-12-08T16:31:33.599Z,6.75
2018-12-08T16:34:02.754Z,6.78
2018-12-08T16:36:31.861Z,6.79
2018-12-08T16:39:01.037Z,6.78
2018-12-08T16:41:30.330Z,6.83
2018-12-08T16:43:59.456Z,6.89
2018-12-08T16:46:28.757Z,6.89
2018-12-08T16:48:58.038Z,6.95
2018-12-08T16:51:27.179Z,6.97
2018-12-08T16:53:58.433Z,7.03
2018-12-08T16:56:27.751Z,7.00
2018-12-08T16:58:57.044Z,6.98
2018-12-08T17:01:27.888Z,7.00
2018-12-08T17:03:57.477Z,7.02
2018-12-08T17:06:26.621Z,7.14
2018-12-08T17:08:55.734Z,7.17
2018-12-08T17:11:25.065Z,7.14
2018-12-08T17:13:54.995Z,7.16
2018-12-08T17:16:24.186Z,7.22
2018-12-08T17:18:53.361Z,7.25
2018-12-08T17:21:22.516Z,7.30
2018-12-08T17:23:51.722Z,7.32
2018-12-08T17:26:21.192Z,7.31
2018-12-08T17:28:50.415Z,7.28
2018-12-08T17:31:19.496Z,7.25
2018-12-08T17:33:48.686Z,7.21
2018-12-08T17:36:18.355Z,7.21
2018-12-08T17:38:47.583Z,7.16
2018-12-08T17:41:16.797Z,7.14
2018-12-08T17:43:45.924Z,7.14
2018-12-08T17:46:15.171Z,7.12
2018-12-08T17:48:44.390Z,7.08
2018-12-08T17:51:13.593Z,7.04
2018-12-08T17:53:42.734Z,7.06
2018-12-08T17:56:12.069Z,7.07
2018-12-08T17:58:41.206Z,7.05
2018-12-08T18:01:10.400Z,6.93
2018-12-08T18:03:39.555Z,6.83
2018-12-08T18:06:11.785Z,6.79
2018-12-08T18:08:41.349Z,6.69
2018-12-08T18:11:10.669Z,6.67
2018-12-08T18:13:39.971Z,6.65
2018-12-08T18:16:09.277Z,6.64
2018-12-08T18:18:38.474Z,6.61
2018-12-08T18:21:07.926Z,6.64
2018-12-08T18:23:37.275Z,6.60
2018-12-08T18:26:06.415Z,6.57
2018-12-08T18:28:35.878Z,6.49
2018-12-08T18:31:05.025Z,6.40
2018-12-08T18:33:34.139Z,6.32
2018-12-08T18:36:03.361Z,6.30
2018-12-08T18:38:32.563Z,6.23
2018-12-08T18:41:01.953Z,6.17
2018-12-08T18:43:31.098Z,6.19
2018-12-08T18:46:00.293Z,6.18
2018-12-08T18:48:29.458Z,6.22
2018-12-08T18:50:58.719Z,6.25
2018-12-08T18:53:27.954Z,6.24
2018-12-08T18:55:57.340Z,6.25
2018-12-08T18:58:26.492Z,6.28
2018-12-08T19:00:55.958Z,6.26
2018-12-08T19:03:25.228Z,6.25
2018-12-08T19:05:54.661Z,6.24
2018-12-08T19:08:23.854Z,6.27
2018-12-08T19:10:53.061Z,6.27
2018-12-08T19:13:22.203Z,6.24
2018-12-08T19:15:51.339Z,6.20
2018-12-08T19:18:20.513Z,6.19
2018-12-08T19:20:49.710Z,6.20
2018-12-08T19:23:18.907Z,6.25
2018-12-08T19:25:48.117Z,6.32
2018-12-08T19:28:17.313Z,6.38
2018-12-08T19:30:46.503Z,6.49
2018-12-08T19:33:15.655Z,6.42
2018-12-08T19:35:44.940Z,6.43
2018-12-08T19:38:14.117Z,6.43
2018-12-08T19:40:43.325Z,6.45
2018-12-08T19:43:12.449Z,6.55
2018-12-08T19:45:41.692Z,6.53
2018-12-08T19:48:10.804Z,6.55
2018-12-08T19:50:40.080Z,6.60
2018-12-08T19:53:09.220Z,6.66
2018-12-08T19:55:38.338Z,6.75
2018-12-08T19:58:07.561Z,6.83
2018-12-08T20:00:36.669Z,6.78
2018-12-08T20:03:05.771Z,6.77
2018-12-08T20:05:34.925Z,6.75
2018-12-08T20:08:04.050Z,6.76
2018-12-08T20:10:33.188Z,6.80
2018-12-08T20:13:02.489Z,6.86
2018-12-08T20:15:31.615Z,7.01
2018-12-08T20:18:00.888Z,7.02
2018-12-08T20:20:30.007Z,7.08
2018-12-08T20:22:59.205Z,7.08
2018-12-08T20:25:28.474Z,7.13
2018-12-08T20:27:57.749Z,7.12
2018-12-08T20:30:26.888Z,7.17
2018-12-08T20:32:56.021Z,7.21
2018-12-08T20:35:25.234Z,7.23
2018-12-08T20:37:54.331Z,7.22
2018-12-08T20:40:23.560Z,7.24
2018-12-08T20:42:52.862Z,7.18
2018-12-08T20:45:22.059Z,7.08
2018-12-08T20:47:51.186Z,6.96
2018-12-08T20:50:20.272Z,6.88
2018-12-08T20:52:49.422Z,6.90
2018-12-08T20:55:18.800Z,6.87
2018-12-08T20:57:47.958Z,6.95
2018-12-08T21:00:17.136Z,7.00
2018-12-08T21:02:46.251Z,7.02
2018-12-08T21:05:15.499Z,7.04
2018-12-08T21:07:44.638Z,7.11
2018-12-08T21:10:14.034Z,7.08
2018-12-08T21:12:43.236Z,7.09
2018-12-08T21:15:12.534Z,7.07
2018-12-08T21:17:41.738Z,7.06
2018-12-08T21:20:10.868Z,7.08
2018-12-08T21:22:40.055Z,7.07
2018-12-08T21:25:09.251Z,6.99
2018-12-08T21:27:38.456Z,6.81
2018-12-08T21:30:07.805Z,6.77
2018-12-08T21:32:36.989Z,6.77
2018-12-08T21:35:08.248Z,6.77
2018-12-08T21:37:37.370Z,6.77
2018-12-08T21:40:13.362Z,6.73
2018-12-08T21:42:42.484Z,6.71
2018-12-08T21:45:11.643Z,6.67
2018-12-08T21:47:40.813Z,6.68
2018-12-08T21:50:10.020Z,6.74
2018-12-08T21:52:39.204Z,6.73
2018-12-08T21:55:08.498Z,6.77
2018-12-08T21:57:37.659Z,6.76
2018-12-08T22:00:08.418Z,6.80
2018-12-08T22:02:37.558Z,6.82
2018-12-08T22:05:07.250Z,6.80
2018-12-08T22:07:36.563Z,6.81
2018-12-08T22:10:05.854Z,6.82
2018-12-08T22:12:35.246Z,6.87
2018-12-08T22:15:06.881Z,6.92
2018-12-08T22:17:36.069Z,6.99
2018-12-08T22:20:05.714Z,6.98
2018-12-08T22:22:34.967Z,6.99
2018-12-08T22:25:05.336Z,7.05
2018-12-08T22:27:34.479Z,7.15
2018-12-08T22:30:04.239Z,7.13
2018-12-08T22:32:33.404Z,7.12
2018-12-08T22:35:02.560Z,7.08
2018-12-08T22:37:31.680Z,7.04
2018-12-08T22:40:00.799Z,6.97
2018-12-08T22:42:30.034Z,6.94
2018-12-08T22:44:59.428Z,6.87
2018-12-08T22:47:28.563Z,6.80
2018-12-08T22:49:57.883Z,6.78
2018-12-08T22:52:27.123Z,6.79
2018-12-08T22:54:56.276Z,6.82
2018-12-08T22:57:26.115Z,6.87
2018-12-08T22:59:55.250Z,6.86
2018-12-08T23:02:24.397Z,6.84
2018-12-08T23:04:53.547Z,6.84
2018-12-08T23:07:22.823Z,6.85
2018-12-08T23:09:51.981Z,6.86
2018-12-08T23:12:21.220Z,6.89
2018-12-08T23:14:50.359Z,6.87
2018-12-08T23:17:19.663Z,6.89
2018-12-08T23:19:48.809Z,6.89
2018-12-08T23:22:17.974Z,6.94
2018-12-08T23:24:47.161Z,6.94
2018-12-08T23:27:16.313Z,6.96
2018-12-08T23:29:45.417Z,6.97
2018-12-08T23:32:14.541Z,6.97
2018-12-08T23:34:43.797Z,7.01
2018-12-08T23:37:13.129Z,7.04
2018-12-08T23:39:42.378Z,7.07
2018-12-08T23:42:11.600Z,7.12
2018-12-08T23:44:41.060Z,7.19
2018-12-08T23:47:10.256Z,7.24
2018-12-08T23:49:39.496Z,7.25
2018-12-08T23:52:08.604Z,7.27
2018-12-08T23:54:37.788Z,7.19
2018-12-08T23:57:07.058Z,7.06
2018-12-08T23:59:36.267Z,6.96
